首页
METAR-TAF:

METAR-TAF

机场 :

瓦爾納, 保加利亚

纬度: 43-12N, 经度: 027-55E, 海拔: 41米

当前天气观测

该预报发布于28分钟前的15:30 UTC
风速13节,风向东北
温度 14°C
湿度 26%
气压 1025 hPa
能见度10公里或以上
1500米以下无云,无积雨云

METAR: LBWN 081530Z 05013KT CAVOK 14/M05 Q1025 NOSIG

时间: 18:58 (15:58 UTC)

预报

该预报发布于4小时和58分钟前的11:00 UTC
预报有效从08日的 12点(UTC)到 09日的 12点(UTC)
风速14节,风向东北
能见度10公里或以上
1500米以下无云,无积雨云
短暂存在
从 08日的 12点(UTC)到 08日的 16点(UTC)
风速16节,风向东转东北,有时为26节阵风
成为
从 08日的 19点(UTC)到 08日的 21点(UTC)
风速4节,风向多变

TAF: LBWN 081100Z 0812/0912 05014KT CAVOK TEMPO 0812/0816 07016G26KT BECMG 0819/0821 VRB04KT

超过4000个机场的气象观测和天气预报(METAR&TAF报告)。

可查询的气象台以黄色和红色小点在地图上表示。

将鼠标移到小点上方,可查看气象台名称。

然后点击查看天气观测和预报。

如需切换地图:点击带黑十字的绿色按钮放大地图;点击带横线的绿色按钮缩小地图;或者点击绿色箭头查看邻近地区的地图。


METAR-TAF: